Time;durP1;ratioP1;P1;durP2;ratioP2;P2;SDS_P1;SDS_P2;PMS_P1;PMS_P2;Temp;Humidity;BMP_temperature;BMP_pressure;BME280_temperature;BME280_humidity;BME280_pressure;Samples;Min_cycle;Max_cycle;Signal;HPM_P1;HPM_P2
2023/05/03 00:00:48;;;;;;;8.55;3.80;;;7.40;99.90;;;;;;4949481;28;20378;-73
2023/05/03 00:03:13;;;;;;;8.23;4.18;;;7.40;99.90;;;;;;4947844;29;20026;-73
2023/05/03 00:05:39;;;;;;;6.80;3.95;;;7.30;99.90;;;;;;4947406;29;20038;-73
2023/05/03 00:08:05;;;;;;;8.90;4.50;;;7.30;99.90;;;;;;4946349;29;20038;-73
2023/05/03 00:10:30;;;;;;;8.60;4.05;;;7.30;99.90;;;;;;4943722;29;20079;-72
2023/05/03 00:12:56;;;;;;;12.25;4.20;;;7.30;99.90;;;;;;4948407;29;20508;-72
2023/05/03 00:15:22;;;;;;;8.85;3.90;;;7.30;99.90;;;;;;4956444;28;20070;-72
2023/05/03 00:17:47;;;;;;;11.27;4.68;;;7.30;99.90;;;;;;4944316;29;20340;-72
2023/05/03 00:20:14;;;;;;;5.95;3.97;;;7.30;99.90;;;;;;4947536;29;20375;-72
2023/05/03 00:22:40;;;;;;;7.15;4.15;;;7.30;99.90;;;;;;4949002;29;20038;-73
2023/05/03 00:25:07;;;;;;;7.40;3.97;;;7.30;99.90;;;;;;4943150;29;20468;-73
2023/05/03 00:27:33;;;;;;;6.55;4.18;;;7.20;99.90;;;;;;4955981;28;20031;-73
2023/05/03 00:29:59;;;;;;;9.57;4.03;;;7.20;99.90;;;;;;4953331;28;20022;-73
2023/05/03 00:32:24;;;;;;;8.02;4.05;;;7.20;99.90;;;;;;4940566;28;20028;-73
2023/05/03 00:34:56;;;;;;;8.27;4.18;;;7.20;99.90;;;;;;4954770;29;20020;-73
2023/05/03 00:37:24;;;;;;;10.15;3.90;;;7.20;99.90;;;;;;4951344;29;20051;-74
2023/05/03 00:39:51;;;;;;;6.90;4.30;;;7.10;99.90;;;;;;4953567;28;20070;-73
2023/05/03 00:42:17;;;;;;;7.70;4.30;;;7.10;99.90;;;;;;4952116;29;20027;-73
2023/05/03 00:44:42;;;;;;;9.35;4.40;;;7.10;99.90;;;;;;4952869;29;20030;-74
2023/05/03 00:47:08;;;;;;;8.45;4.38;;;7.10;99.90;;;;;;4953617;29;20059;-73
2023/05/03 00:49:34;;;;;;;7.25;4.22;;;7.00;99.90;;;;;;4955656;29;20490;-73
2023/05/03 00:52:00;;;;;;;9.27;4.82;;;7.00;99.90;;;;;;4952955;28;20087;-73
2023/05/03 00:54:29;;;;;;;8.23;4.40;;;7.00;99.90;;;;;;4955783;29;20035;-73
2023/05/03 00:56:55;;;;;;;8.60;4.75;;;7.00;99.90;;;;;;4950993;28;20051;-73
2023/05/03 00:59:21;;;;;;;13.73;4.50;;;6.90;99.90;;;;;;4947833;28;20039;-73
2023/05/03 01:01:48;;;;;;;6.88;4.38;;;6.90;99.90;;;;;;4954966;29;20028;-73
2023/05/03 01:04:15;;;;;;;8.85;4.65;;;6.90;99.90;;;;;;4954996;28;20139;-74
2023/05/03 01:06:50;;;;;;;8.82;4.50;;;6.90;99.90;;;;;;4955451;28;20506;-73
2023/05/03 01:10:01;;;;;;;8.95;4.50;;;6.90;99.90;;;;;;4950704;28;20062;-74
2023/05/03 01:13:03;;;;;;;9.85;4.78;;;6.80;99.90;;;;;;4917836;28;20067;-73
2023/05/03 01:15:43;;;;;;;9.00;4.93;;;6.80;99.90;;;;;;4946691;29;20031;-73
2023/05/03 01:18:15;;;;;;;7.50;5.07;;;6.80;99.90;;;;;;4954556;28;20462;-73
2023/05/03 01:20:45;;;;;;;8.88;5.20;;;6.80;99.90;;;;;;4948016;29;20027;-73
2023/05/03 01:23:20;;;;;;;12.55;5.82;;;6.70;99.90;;;;;;4952205;29;20115;-73
2023/05/03 01:25:45;;;;;;;;;;;6.70;99.90;;;;;;4935855;29;20410;-73
2023/05/03 01:28:11;;;;;;;12.52;5.80;;;6.70;99.90;;;;;;4948603;29;19906;-73
2023/05/03 01:30:39;;;;;;;9.13;5.20;;;6.60;99.90;;;;;;4939333;28;20078;-73
2023/05/03 01:33:25;;;;;;;11.15;5.45;;;6.60;99.90;;;;;;4946362;29;20034;-73
2023/05/03 01:36:19;;;;;;;9.18;5.05;;;6.60;99.90;;;;;;4942581;29;20094;-73
2023/05/03 01:38:46;;;;;;;9.60;5.53;;;6.60;99.90;;;;;;4939142;29;20036;-73
2023/05/03 01:41:15;;;;;;;10.07;5.72;;;6.60;99.90;;;;;;4947556;28;20026;-73
2023/05/03 01:43:42;;;;;;;10.60;6.05;;;6.60;99.90;;;;;;4950196;28;20416;-73
2023/05/03 01:46:08;;;;;;;10.52;5.85;;;6.60;99.90;;;;;;4945431;29;20539;-73
2023/05/03 01:48:34;;;;;;;8.15;6.15;;;6.60;99.90;;;;;;4947791;29;20102;-75
2023/05/03 01:50:59;;;;;;;10.15;5.47;;;6.60;99.90;;;;;;4954584;29;20026;-73
2023/05/03 01:53:25;;;;;;;11.75;5.60;;;6.60;99.90;;;;;;4950311;29;20383;-73
2023/05/03 01:55:50;;;;;;;13.07;6.18;;;6.60;99.90;;;;;;4948821;29;20023;-72
2023/05/03 01:58:16;;;;;;;10.25;5.30;;;6.60;99.90;;;;;;4949505;29;20073;-73
2023/05/03 02:00:43;;;;;;;11.93;5.85;;;6.60;99.90;;;;;;4946555;28;20031;-73
2023/05/03 02:03:09;;;;;;;9.35;5.35;;;6.60;99.90;;;;;;4943546;29;20024;-73
2023/05/03 02:05:35;;;;;;;10.40;5.90;;;6.50;99.90;;;;;;4954075;29;20047;-73
2023/05/03 02:08:00;;;;;;;10.13;5.80;;;6.50;99.90;;;;;;4953645;29;20027;-73
2023/05/03 02:10:26;;;;;;;9.38;5.55;;;6.50;99.90;;;;;;4950322;28;20024;-72
2023/05/03 02:12:51;;;;;;;11.60;5.40;;;6.50;99.90;;;;;;4940867;29;20527;-73
2023/05/03 02:15:18;;;;;;;8.98;5.18;;;6.50;99.90;;;;;;4941638;29;20086;-72
2023/05/03 02:17:46;;;;;;;10.48;5.10;;;6.50;99.90;;;;;;4948525;28;20741;-73
2023/05/03 02:20:12;;;;;;;11.48;4.93;;;6.50;99.90;;;;;;4951458;28;20043;-73
2023/05/03 02:22:38;;;;;;;11.07;4.90;;;6.50;99.90;;;;;;4950071;28;20467;-73
2023/05/03 02:25:05;;;;;;;8.52;4.93;;;6.50;99.90;;;;;;4938932;29;20095;-73
2023/05/03 02:27:31;;;;;;;9.05;4.95;;;6.50;99.90;;;;;;4949300;29;20066;-73
2023/05/03 02:29:56;;;;;;;7.72;5.00;;;6.40;99.90;;;;;;4951737;29;20066;-73
2023/05/03 02:32:22;;;;;;;8.45;4.55;;;6.40;99.90;;;;;;4937624;29;20416;-73
2023/05/03 02:34:48;;;;;;;10.10;4.90;;;6.40;99.90;;;;;;4950423;29;20082;-74
2023/05/03 02:37:15;;;;;;;9.07;4.75;;;6.40;99.90;;;;;;4948545;29;20046;-73
2023/05/03 02:39:40;;;;;;;11.75;5.38;;;6.40;99.90;;;;;;4943500;29;20420;-73
2023/05/03 02:42:07;;;;;;;12.77;5.45;;;6.30;99.90;;;;;;4965878;28;20053;-73
2023/05/03 02:44:32;;;;;;;9.32;4.93;;;6.30;99.90;;;;;;4943257;29;20035;-73
2023/05/03 02:46:58;;;;;;;9.80;5.15;;;6.30;99.90;;;;;;4943043;29;20483;-73
2023/05/03 02:49:23;;;;;;;10.63;5.25;;;6.30;99.90;;;;;;4948856;29;20027;-73
2023/05/03 02:51:51;;;;;;;9.05;4.90;;;6.30;99.90;;;;;;4947473;29;20403;-73
2023/05/03 02:54:17;;;;;;;8.07;4.63;;;6.30;99.90;;;;;;4949933;29;20502;-73
2023/05/03 02:56:44;;;;;;;6.95;4.78;;;6.30;99.90;;;;;;4950763;28;20087;-73
2023/05/03 02:59:11;;;;;;;7.82;4.57;;;6.20;99.90;;;;;;4952513;28;20030;-73
2023/05/03 03:01:37;;;;;;;12.55;4.90;;;6.20;99.90;;;;;;4942951;29;20016;-73
2023/05/03 03:04:02;;;;;;;11.27;4.68;;;6.20;99.90;;;;;;4949672;29;20154;-73
2023/05/03 03:06:28;;;;;;;8.10;4.60;;;6.20;99.90;;;;;;4944232;29;20023;-73
2023/05/03 03:08:54;;;;;;;9.95;4.43;;;6.20;99.90;;;;;;4950875;29;20035;-73
2023/05/03 03:11:19;;;;;;;7.20;4.20;;;6.20;99.90;;;;;;4951618;29;20394;-73
2023/05/03 03:13:45;;;;;;;6.93;4.10;;;6.20;99.90;;;;;;4940232;28;20167;-73
2023/05/03 03:16:12;;;;;;;9.13;4.22;;;6.10;99.90;;;;;;4951187;29;20023;-74
2023/05/03 03:18:38;;;;;;;11.25;4.45;;;6.10;99.90;;;;;;4949924;29;20023;-73
2023/05/03 03:21:03;;;;;;;8.63;4.18;;;6.10;99.90;;;;;;4944527;28;20497;-73
2023/05/03 03:23:29;;;;;;;10.43;4.40;;;6.10;99.90;;;;;;4945552;29;20035;-73
2023/05/03 03:25:55;;;;;;;8.82;4.10;;;6.10;99.90;;;;;;4943742;29;20707;-73
2023/05/03 03:28:21;;;;;;;8.43;4.30;;;6.10;99.90;;;;;;4951438;29;20035;-73
2023/05/03 03:30:47;;;;;;;10.07;4.30;;;6.00;99.90;;;;;;4941374;29;20367;-73
2023/05/03 03:33:13;;;;;;;7.00;4.28;;;6.00;99.90;;;;;;4938418;28;20028;-73
2023/05/03 03:35:38;;;;;;;11.40;4.40;;;6.00;99.90;;;;;;4948775;29;20498;-73
2023/05/03 03:38:05;;;;;;;8.73;4.43;;;6.00;99.90;;;;;;4943764;29;20032;-73
2023/05/03 03:40:31;;;;;;;7.55;4.25;;;6.00;99.90;;;;;;4956699;28;20078;-73
2023/05/03 03:42:56;;;;;;;8.75;3.70;;;6.00;99.90;;;;;;4956625;28;20035;-73
2023/05/03 03:45:22;;;;;;;7.85;3.88;;;6.00;99.90;;;;;;4953202;28;20073;-73
2023/05/03 03:47:47;;;;;;;9.00;4.10;;;6.00;99.90;;;;;;4951919;29;20023;-73
2023/05/03 03:50:13;;;;;;;9.75;3.70;;;6.00;99.90;;;;;;4947299;29;20028;-73
2023/05/03 03:52:39;;;;;;;8.20;4.10;;;6.00;99.90;;;;;;4950320;29;20023;-73
2023/05/03 03:55:05;;;;;;;11.27;4.80;;;5.90;99.90;;;;;;4950425;29;20086;-73
2023/05/03 03:57:31;;;;;;;7.05;3.72;;;5.90;99.90;;;;;;4948771;28;20058;-73
2023/05/03 03:59:58;;;;;;;8.32;4.07;;;5.90;99.90;;;;;;4942092;29;20426;-73
2023/05/03 04:02:24;;;;;;;7.55;3.65;;;5.90;99.90;;;;;;4954130;29;20024;-73
2023/05/03 04:04:50;;;;;;;6.10;3.75;;;5.90;99.90;;;;;;4940107;29;20027;-73
2023/05/03 04:07:16;;;;;;;9.25;4.35;;;5.90;99.90;;;;;;4940849;29;20040;-73
2023/05/03 04:09:41;;;;;;;9.32;3.67;;;5.90;99.90;;;;;;4955717;28;20106;-73
2023/05/03 04:12:07;;;;;;;8.23;3.72;;;5.90;99.90;;;;;;4944076;28;20027;-73
2023/05/03 04:14:33;;;;;;;8.23;3.83;;;5.80;99.90;;;;;;4943121;29;20066;-73
2023/05/03 04:16:58;;;;;;;7.65;3.63;;;5.80;99.90;;;;;;4956334;29;20032;-73
2023/05/03 04:19:25;;;;;;;5.40;3.47;;;5.80;99.90;;;;;;4956113;29;20034;-73
2023/05/03 04:21:51;;;;;;;7.50;3.75;;;5.80;99.90;;;;;;4954446;29;20083;-73
2023/05/03 04:24:17;;;;;;;8.77;4.18;;;5.80;99.90;;;;;;4951633;28;20106;-73
2023/05/03 04:26:43;;;;;;;8.48;3.65;;;5.80;99.90;;;;;;4950184;28;20139;-73
2023/05/03 04:29:10;;;;;;;7.68;3.65;;;5.80;99.90;;;;;;4943531;29;20019;-73
2023/05/03 04:31:36;;;;;;;7.18;4.05;;;5.80;99.90;;;;;;4942504;28;20016;-73
2023/05/03 04:34:03;;;;;;;8.25;3.85;;;5.70;99.90;;;;;;4963727;28;20031;-73
2023/05/03 04:36:29;;;;;;;11.57;4.03;;;5.70;99.90;;;;;;4952657;29;20027;-73
2023/05/03 04:38:55;;;;;;;12.85;4.25;;;5.70;99.90;;;;;;4947558;29;20012;-73
2023/05/03 04:41:21;;;;;;;7.72;3.97;;;5.70;99.90;;;;;;4949181;29;20047;-73
2023/05/03 04:43:47;;;;;;;12.63;5.85;;;5.70;99.90;;;;;;4951734;29;20054;-73
2023/05/03 04:46:12;;;;;;;7.85;4.20;;;5.70;99.90;;;;;;4951095;28;20035;-73
2023/05/03 04:48:38;;;;;;;9.90;4.13;;;5.70;99.90;;;;;;4952329;29;20131;-73
2023/05/03 04:51:04;;;;;;;7.30;4.38;;;5.80;99.90;;;;;;4949478;29;20454;-73
2023/05/03 04:53:30;;;;;;;9.43;3.75;;;5.80;99.90;;;;;;4955892;29;20050;-73
2023/05/03 04:55:55;;;;;;;6.70;4.18;;;5.80;99.90;;;;;;4955168;28;20039;-73
2023/05/03 04:58:21;;;;;;;8.10;4.10;;;5.80;99.90;;;;;;4955482;28;20418;-73
2023/05/03 05:00:47;;;;;;;9.85;3.88;;;5.80;99.90;;;;;;4941793;28;20416;-73
2023/05/03 05:03:13;;;;;;;8.80;4.07;;;5.80;99.90;;;;;;4953106;28;20031;-73
2023/05/03 05:05:39;;;;;;;7.93;4.35;;;5.80;99.90;;;;;;4942982;28;20062;-73
2023/05/03 05:08:04;;;;;;;10.75;4.72;;;5.90;99.90;;;;;;4944486;29;20062;-73
2023/05/03 05:10:30;;;;;;;7.88;4.38;;;5.90;99.90;;;;;;4941773;28;20491;-73
2023/05/03 05:12:56;;;;;;;6.70;3.90;;;5.90;99.90;;;;;;4945583;29;20027;-73
2023/05/03 05:15:22;;;;;;;10.43;4.45;;;5.90;99.90;;;;;;4941178;29;20027;-73
2023/05/03 05:17:48;;;;;;;9.65;4.07;;;5.90;99.90;;;;;;4947343;29;20521;-73
2023/05/03 05:20:13;;;;;;;7.63;4.13;;;5.90;99.90;;;;;;4942105;28;20074;-73
2023/05/03 05:22:39;;;;;;;7.78;4.35;;;6.00;99.90;;;;;;4944955;28;20024;-73
2023/05/03 05:25:06;;;;;;;9.48;4.32;;;6.00;99.90;;;;;;4944545;29;20015;-73
2023/05/03 05:27:35;;;;;;;8.90;4.38;;;6.00;99.90;;;;;;4947270;29;20062;-73
2023/05/03 05:30:01;;;;;;;11.13;4.78;;;6.10;99.90;;;;;;4942285;29;20024;-73
2023/05/03 05:32:27;;;;;;;8.93;4.10;;;6.10;99.90;;;;;;4947813;29;20106;-73
2023/05/03 05:34:54;;;;;;;8.52;4.10;;;6.10;99.90;;;;;;4948675;29;20054;-73
2023/05/03 05:37:24;;;;;;;15.20;4.60;;;6.20;99.90;;;;;;4951421;29;20070;-74
2023/05/03 05:39:50;;;;;;;10.02;4.35;;;6.20;99.90;;;;;;4954186;29;20023;-73
2023/05/03 05:42:16;;;;;;;10.20;4.05;;;6.30;99.90;;;;;;4954327;29;20752;-73
2023/05/03 05:44:42;;;;;;;12.50;4.50;;;6.30;99.90;;;;;;4953756;29;20031;-73
2023/05/03 05:47:08;;;;;;;13.43;4.43;;;6.30;99.90;;;;;;4951798;29;20038;-73
2023/05/03 05:49:34;;;;;;;10.07;4.15;;;6.40;99.90;;;;;;4949037;29;20055;-73
2023/05/03 05:52:00;;;;;;;9.82;4.00;;;6.40;99.90;;;;;;4951096;29;20027;-73
2023/05/03 05:54:26;;;;;;;11.35;4.50;;;6.50;99.90;;;;;;4953172;29;20031;-73
2023/05/03 05:56:51;;;;;;;10.18;4.30;;;6.50;99.90;;;;;;4954125;28;20051;-73
2023/05/03 05:59:17;;;;;;;8.05;4.28;;;6.60;99.90;;;;;;4953793;28;20033;-74
2023/05/03 06:01:44;;;;;;;11.40;4.03;;;6.60;99.90;;;;;;4953099;28;20479;-74
2023/05/03 06:04:13;;;;;;;10.10;4.22;;;6.70;99.90;;;;;;4952146;29;20078;-73
2023/05/03 06:06:39;;;;;;;11.00;4.15;;;6.70;99.90;;;;;;4954375;29;20028;-74
2023/05/03 06:09:04;;;;;;;9.35;3.90;;;6.80;99.90;;;;;;4949260;29;20023;-73
2023/05/03 06:11:31;;;;;;;8.80;3.72;;;6.80;99.90;;;;;;4939462;29;20019;-72
2023/05/03 06:13:57;;;;;;;7.88;4.05;;;6.90;99.90;;;;;;4949350;29;20474;-73
2023/05/03 06:16:23;;;;;;;8.73;3.80;;;6.90;99.90;;;;;;4948618;29;20024;-73
2023/05/03 06:18:49;;;;;;;7.43;3.70;;;7.00;99.90;;;;;;4946854;29;20114;-74
2023/05/03 06:21:15;;;;;;;6.95;3.85;;;7.00;99.90;;;;;;4951983;29;20141;-74
2023/05/03 06:23:41;;;;;;;6.45;3.08;;;7.10;99.90;;;;;;4949999;29;20475;-74
2023/05/03 06:26:07;;;;;;;6.75;3.10;;;7.20;99.90;;;;;;4947605;28;20035;-73
2023/05/03 06:28:33;;;;;;;10.55;3.55;;;7.20;99.90;;;;;;4948846;28;20035;-72
2023/05/03 06:31:00;;;;;;;10.18;3.25;;;7.20;99.90;;;;;;4949757;29;20344;-73
2023/05/03 06:33:26;;;;;;;6.93;3.30;;;7.30;99.90;;;;;;4954187;28;20561;-73
2023/05/03 06:35:51;;;;;;;8.45;2.78;;;7.40;99.90;;;;;;4953590;28;20023;-73
2023/05/03 06:38:17;;;;;;;7.15;3.00;;;7.50;99.90;;;;;;4951869;29;20027;-73
2023/05/03 06:40:46;;;;;;;11.73;3.13;;;7.50;99.90;;;;;;4953494;29;20517;-73
2023/05/03 06:43:12;;;;;;;7.38;2.78;;;7.60;99.90;;;;;;4945603;29;20027;-73
2023/05/03 06:45:38;;;;;;;9.82;2.83;;;7.60;99.90;;;;;;4944653;29;20123;-73
2023/05/03 06:48:05;;;;;;;6.10;2.88;;;7.70;99.90;;;;;;4949328;28;20498;-73
2023/05/03 06:50:31;;;;;;;10.35;2.72;;;7.80;99.90;;;;;;4953869;29;20019;-73
2023/05/03 06:52:56;;;;;;;8.43;2.67;;;7.80;99.90;;;;;;4947860;29;20036;-73
2023/05/03 06:55:22;;;;;;;7.57;2.42;;;7.90;99.90;;;;;;4939794;29;20036;-72
2023/05/03 06:57:48;;;;;;;11.13;2.70;;;8.00;99.90;;;;;;4949768;28;20055;-73
2023/05/03 07:00:14;;;;;;;7.45;2.60;;;8.10;99.90;;;;;;4941100;29;20032;-73
2023/05/03 07:02:41;;;;;;;9.65;2.92;;;8.20;99.90;;;;;;4953796;28;20015;-73
2023/05/03 07:05:07;;;;;;;8.02;2.92;;;8.30;99.90;;;;;;4951340;29;20122;-73
2023/05/03 07:07:33;;;;;;;4.38;2.53;;;8.30;99.90;;;;;;4950770;29;20087;-73
2023/05/03 07:09:59;;;;;;;7.53;2.40;;;8.40;99.90;;;;;;4952846;28;20055;-73
2023/05/03 07:12:27;;;;;;;7.78;2.05;;;8.50;99.90;;;;;;4942310;29;20459;-73
2023/05/03 07:14:56;;;;;;;8.82;2.03;;;8.60;99.90;;;;;;4952139;28;20020;-73
2023/05/03 07:17:22;;;;;;;6.20;2.00;;;8.70;99.90;;;;;;4952619;28;20046;-73
2023/05/03 07:19:49;;;;;;;11.85;2.17;;;8.80;99.90;;;;;;4953208;28;20059;-73
2023/05/03 07:22:15;;;;;;;7.53;2.28;;;8.90;99.90;;;;;;4953241;28;20031;-73
2023/05/03 07:24:40;;;;;;;6.10;1.80;;;9.10;99.90;;;;;;4950323;29;20027;-73
2023/05/03 07:27:06;;;;;;;8.38;2.35;;;9.20;99.90;;;;;;4945015;29;20683;-74
2023/05/03 07:29:32;;;;;;;9.20;2.00;;;9.30;99.90;;;;;;4950128;28;20082;-73
2023/05/03 07:31:58;;;;;;;8.82;2.13;;;9.40;99.90;;;;;;4944290;29;20487;-73
2023/05/03 07:34:24;;;;;;;6.03;1.98;;;9.60;99.90;;;;;;4955060;28;20026;-73
2023/05/03 07:36:50;;;;;;;6.20;1.92;;;9.70;99.90;;;;;;4947875;29;20099;-73
2023/05/03 07:39:17;;;;;;;8.60;2.35;;;9.70;99.90;;;;;;4953882;28;20451;-74
2023/05/03 07:41:43;;;;;;;14.27;2.30;;;9.90;99.90;;;;;;4950206;29;20087;-73
2023/05/03 07:44:08;;;;;;;7.05;2.20;;;10.00;99.90;;;;;;4952638;28;20024;-73
2023/05/03 07:46:34;;;;;;;8.45;1.73;;;10.10;99.90;;;;;;4951323;29;20106;-73
2023/05/03 07:49:01;;;;;;;5.88;2.00;;;10.30;99.90;;;;;;4952488;29;20032;-73
2023/05/03 07:51:27;;;;;;;10.77;2.20;;;10.40;99.90;;;;;;4953082;28;20023;-73
2023/05/03 07:53:55;;;;;;;7.78;2.25;;;10.50;99.90;;;;;;4953164;28;20114;-73
2023/05/03 07:56:21;;;;;;;7.75;2.35;;;10.60;99.90;;;;;;4952972;28;20098;-73
2023/05/03 07:58:47;;;;;;;6.45;2.08;;;10.70;99.90;;;;;;4950809;29;20089;-73
2023/05/03 08:01:12;;;;;;;7.68;2.20;;;10.80;99.90;;;;;;4951502;28;20027;-73
2023/05/03 08:03:38;;;;;;;7.53;2.00;;;11.00;99.90;;;;;;4949579;28;20102;-73
2023/05/03 08:06:04;;;;;;;5.88;2.13;;;11.20;99.90;;;;;;4951558;29;20082;-73
2023/05/03 08:08:31;;;;;;;7.95;2.45;;;11.30;99.90;;;;;;4939548;29;20079;-73
2023/05/03 08:10:56;;;;;;;5.28;1.73;;;11.40;99.90;;;;;;4949161;28;20047;-73
2023/05/03 08:13:22;;;;;;;8.18;1.90;;;11.40;99.90;;;;;;4947558;29;20553;-73
2023/05/03 08:15:49;;;;;;;3.55;1.90;;;11.50;99.90;;;;;;4940061;29;20027;-73
2023/05/03 08:18:15;;;;;;;4.53;1.83;;;11.70;99.90;;;;;;4942541;28;20034;-73
2023/05/03 08:20:41;;;;;;;5.78;1.90;;;11.80;99.90;;;;;;4950462;28;20023;-73
2023/05/03 08:23:06;;;;;;;5.78;2.13;;;11.90;99.90;;;;;;4942920;29;20098;-73
2023/05/03 08:25:33;;;;;;;6.22;1.85;;;11.90;99.90;;;;;;4944122;28;20035;-73
2023/05/03 08:27:59;;;;;;;7.95;2.00;;;12.00;99.90;;;;;;4956545;28;20038;-73
2023/05/03 08:30:25;;;;;;;5.00;1.90;;;12.20;99.90;;;;;;4955996;28;20031;-73
2023/05/03 08:32:51;;;;;;;3.90;1.90;;;12.30;99.90;;;;;;4952022;29;20400;-73
2023/05/03 08:35:17;;;;;;;5.75;1.90;;;12.40;99.90;;;;;;4945660;29;20031;-73
2023/05/03 08:37:44;;;;;;;6.50;1.80;;;12.50;99.90;;;;;;4945338;29;20376;-73
2023/05/03 08:40:12;;;;;;;4.65;1.58;;;12.60;99.90;;;;;;4951750;29;20019;-73
2023/05/03 08:42:45;;;;;;;7.07;2.03;;;12.70;99.90;;;;;;4955843;29;20557;-73
2023/05/03 08:45:13;;;;;;;6.25;1.98;;;12.90;99.90;;;;;;4948962;28;20062;-73
2023/05/03 08:47:43;;;;;;;5.28;1.80;;;13.00;99.90;;;;;;4951226;28;20034;-73
2023/05/03 08:50:10;;;;;;;6.25;1.70;;;13.00;99.90;;;;;;4944997;29;20047;-73
2023/05/03 08:52:39;;;;;;;6.10;2.10;;;13.10;99.90;;;;;;4954571;28;20030;-73
2023/05/03 08:55:06;;;;;;;5.25;2.00;;;13.20;99.90;;;;;;4941029;29;20492;-73
2023/05/03 08:57:33;;;;;;;5.47;1.95;;;13.30;99.90;;;;;;4946600;28;20489;-74
2023/05/03 08:59:59;;;;;;;6.07;2.25;;;13.40;99.90;;;;;;4947346;28;20016;-73
2023/05/03 09:02:26;;;;;;;4.72;2.28;;;13.50;99.90;;;;;;4941523;29;20032;-73
2023/05/03 09:04:52;;;;;;;7.65;2.10;;;13.50;99.90;;;;;;4945607;29;20671;-73
2023/05/03 09:07:19;;;;;;;5.40;2.00;;;13.60;99.90;;;;;;4953574;29;20042;-74
2023/05/03 09:09:45;;;;;;;6.90;1.90;;;13.80;99.90;;;;;;4954945;28;20047;-73
2023/05/03 09:12:11;;;;;;;4.00;2.05;;;14.00;99.90;;;;;;4952100;29;20549;-73
2023/05/03 09:14:45;;;;;;;8.63;2.30;;;14.10;99.90;;;;;;4947888;29;20112;-74
2023/05/03 09:17:20;;;;;;;4.97;2.00;;;14.30;99.90;;;;;;4952617;28;20364;-74
2023/05/03 09:19:53;;;;;;;4.90;2.28;;;14.40;99.90;;;;;;4949125;29;20024;-74
2023/05/03 09:22:19;;;;;;;5.47;2.10;;;14.50;99.90;;;;;;4947565;29;20387;-74
2023/05/03 09:24:56;;;;;;;4.95;2.20;;;14.60;99.90;;;;;;4947647;29;20027;-77
2023/05/03 09:27:23;;;;;;;9.50;2.35;;;14.70;99.50;;;;;;4954621;29;20035;-75
2023/05/03 09:29:50;;;;;;;6.38;2.30;;;14.70;99.50;;;;;;4953053;29;20479;-76
2023/05/03 09:32:16;;;;;;;6.45;2.45;;;14.80;99.00;;;;;;4952759;28;20027;-76
2023/05/03 09:34:42;;;;;;;8.98;2.72;;;15.00;98.80;;;;;;4949509;28;20024;-78
2023/05/03 09:37:08;;;;;;;6.03;2.40;;;15.10;98.20;;;;;;4950948;29;20058;-74
2023/05/03 09:39:35;;;;;;;5.68;2.22;;;15.20;97.30;;;;;;4954853;29;20055;-74
2023/05/03 09:42:31;;;;;;;9.32;2.72;;;15.20;97.00;;;;;;4951825;28;20023;-74
2023/05/03 09:44:56;;;;;;;6.00;2.47;;;15.20;95.90;;;;;;4941157;29;20028;-75
2023/05/03 09:47:24;;;;;;;5.10;2.70;;;15.20;96.20;;;;;;4951466;29;20090;-75
2023/05/03 09:49:49;;;;;;;8.75;2.55;;;15.20;96.00;;;;;;4950425;29;20075;-75
2023/05/03 09:52:15;;;;;;;6.25;2.30;;;15.30;95.40;;;;;;4953215;29;20028;-75
2023/05/03 09:54:43;;;;;;;5.30;2.55;;;15.30;95.00;;;;;;4950699;29;20103;-75
2023/05/03 09:57:09;;;;;;;7.07;2.55;;;15.30;94.70;;;;;;4957521;28;20055;-75
2023/05/03 09:59:36;;;;;;;7.28;2.90;;;15.40;95.10;;;;;;4950092;28;20404;-75
2023/05/03 10:02:06;;;;;;;5.32;2.63;;;15.60;94.70;;;;;;4951187;29;20023;-75
2023/05/03 10:04:55;;;;;;;6.00;2.63;;;15.60;94.10;;;;;;4940067;29;20604;-75
2023/05/03 10:07:24;;;;;;;4.32;2.35;;;15.60;93.80;;;;;;4951315;29;20023;-75
2023/05/03 10:09:50;;;;;;;9.93;2.70;;;15.70;94.00;;;;;;4954120;28;20015;-75
2023/05/03 10:12:17;;;;;;;6.82;2.40;;;15.70;92.80;;;;;;4946457;28;20031;-75
2023/05/03 10:14:48;;;;;;;7.50;2.70;;;15.80;93.10;;;;;;4947605;28;20024;-75
2023/05/03 10:17:25;;;;;;;6.90;2.70;;;15.90;92.80;;;;;;4942199;29;20664;-75
2023/05/03 10:20:02;;;;;;;5.32;2.60;;;16.00;92.20;;;;;;4940871;29;20324;-75
2023/05/03 10:22:30;;;;;;;9.80;3.00;;;16.00;91.60;;;;;;4946272;29;20033;-75
2023/05/03 10:25:01;;;;;;;8.38;2.75;;;16.00;91.00;;;;;;4943227;28;20071;-76
2023/05/03 10:27:53;;;;;;;6.35;2.80;;;15.90;90.90;;;;;;4946526;29;20493;-76
2023/05/03 10:30:28;;;;;;;7.30;3.00;;;15.90;91.00;;;;;;4949351;28;20039;-77
2023/05/03 10:32:54;;;;;;;8.13;3.42;;;16.00;91.10;;;;;;4944443;28;20027;-76
2023/05/03 10:35:20;;;;;;;7.07;2.95;;;16.00;90.90;;;;;;4953882;28;20027;-76
2023/05/03 10:37:48;;;;;;;8.18;3.22;;;16.00;90.70;;;;;;4948268;28;20020;-75
2023/05/03 10:40:16;;;;;;;5.57;3.13;;;16.10;90.20;;;;;;4951212;29;20023;-75
2023/05/03 10:42:53;;;;;;;7.38;2.97;;;16.00;89.90;;;;;;4952392;29;20023;-75
2023/05/03 10:45:23;;;;;;;8.32;3.50;;;16.00;88.90;;;;;;4947106;28;20031;-75
2023/05/03 10:48:11;;;;;;;7.93;3.08;;;16.10;89.70;;;;;;4948168;28;20110;-75
2023/05/03 10:50:38;;;;;;;9.85;3.33;;;16.20;89.80;;;;;;4932383;29;20047;-75
2023/05/03 10:53:05;;;;;;;8.27;3.17;;;16.20;89.40;;;;;;4950742;29;20078;-77
2023/05/03 10:55:32;;;;;;;7.68;3.67;;;16.40;89.00;;;;;;4947092;28;20027;-77
2023/05/03 10:57:59;;;;;;;7.82;3.22;;;16.50;87.90;;;;;;4946277;28;20055;-77
2023/05/03 11:00:40;;;;;;;6.30;3.53;;;16.50;86.50;;;;;;4954351;28;20028;-75
2023/05/03 11:03:30;;;;;;;5.45;3.20;;;16.30;85.10;;;;;;4946981;28;20016;-76
2023/05/03 11:05:56;;;;;;;6.20;3.10;;;16.30;87.00;;;;;;4939052;29;20023;-76
2023/05/03 11:08:29;;;;;;;7.82;3.17;;;16.40;87.70;;;;;;4934944;29;20039;-76
2023/05/03 11:10:59;;;;;;;4.55;3.35;;;16.60;87.50;;;;;;4949759;29;20045;-77
2023/05/03 11:13:26;;;;;;;10.65;3.53;;;16.80;87.50;;;;;;4952000;29;20025;-77
2023/05/03 11:15:55;;;;;;;6.95;3.90;;;16.90;85.00;;;;;;4951095;28;20058;-76
2023/05/03 11:18:21;;;;;;;7.32;3.45;;;16.90;83.80;;;;;;4949668;28;20090;-75
2023/05/03 11:20:48;;;;;;;6.85;3.38;;;16.90;83.50;;;;;;4953001;28;20493;-75
2023/05/03 11:23:14;;;;;;;6.28;3.25;;;17.00;82.60;;;;;;4952522;28;20347;-75
2023/05/03 11:25:39;;;;;;;5.70;3.35;;;17.10;81.40;;;;;;4952629;28;20026;-76
2023/05/03 11:28:06;;;;;;;6.25;3.35;;;17.10;79.80;;;;;;4952799;28;20019;-76
2023/05/03 11:30:36;;;;;;;5.25;3.38;;;17.10;79.80;;;;;;4952256;29;20054;-75
2023/05/03 11:33:02;;;;;;;9.10;3.78;;;17.10;78.50;;;;;;4936686;28;20016;-75
2023/05/03 11:35:29;;;;;;;6.57;3.70;;;17.10;78.60;;;;;;4942618;29;20122;-76
2023/05/03 11:37:55;;;;;;;5.45;3.65;;;17.20;78.40;;;;;;4940785;28;20035;-77
2023/05/03 11:40:21;;;;;;;8.02;3.83;;;17.20;78.10;;;;;;4953283;29;20035;-78
2023/05/03 11:42:58;;;;;;;5.97;3.50;;;17.30;77.90;;;;;;4953890;29;20042;-78
2023/05/03 11:45:31;;;;;;;7.32;3.58;;;17.40;76.70;;;;;;4947255;29;20082;-77
2023/05/03 11:47:57;;;;;;;9.18;4.05;;;17.40;76.20;;;;;;4950963;28;20038;-76
2023/05/03 11:50:45;;;;;;;5.43;3.20;;;17.50;76.00;;;;;;4945027;29;20023;-78
2023/05/03 11:53:12;;;;;;;8.05;3.95;;;17.70;75.80;;;;;;4949492;28;20086;-76
2023/05/03 11:55:42;;;;;;;6.00;3.78;;;17.70;76.30;;;;;;4945485;28;20023;-76
2023/05/03 11:58:15;;;;;;;6.60;3.75;;;17.80;76.00;;;;;;4945932;28;20047;-76
2023/05/03 12:00:46;;;;;;;8.88;3.50;;;17.80;74.00;;;;;;4946155;29;20028;-76
2023/05/03 12:03:20;;;;;;;7.28;3.85;;;17.90;74.10;;;;;;4947132;29;20066;-75
2023/05/03 12:05:47;;;;;;;7.05;3.58;;;18.00;73.60;;;;;;4954157;29;20051;-75
2023/05/03 12:08:13;;;;;;;9.48;3.75;;;18.00;72.90;;;;;;4956276;28;20031;-75
2023/05/03 12:10:40;;;;;;;8.68;4.00;;;18.00;73.50;;;;;;4943091;28;20471;-76
2023/05/03 12:13:06;;;;;;;8.70;4.07;;;18.10;73.40;;;;;;4952516;29;20514;-75
2023/05/03 12:15:35;;;;;;;9.07;4.35;;;18.10;72.00;;;;;;4962111;28;20488;-76
2023/05/03 12:18:09;;;;;;;8.52;4.15;;;18.00;71.90;;;;;;4953313;28;20024;-76
2023/05/03 12:20:36;;;;;;;6.60;4.07;;;17.90;72.50;;;;;;4951433;29;20107;-75
2023/05/03 12:23:09;;;;;;;8.25;4.38;;;17.90;72.90;;;;;;4951434;29;20092;-76
2023/05/03 12:25:36;;;;;;;7.05;3.78;;;18.00;72.80;;;;;;4955759;29;20039;-76
2023/05/03 12:28:05;;;;;;;7.22;4.50;;;18.10;73.30;;;;;;4951478;28;20019;-76
2023/05/03 12:30:31;;;;;;;9.95;4.43;;;18.10;73.10;;;;;;4944903;29;20059;-76
2023/05/03 12:32:57;;;;;;;6.10;3.97;;;18.20;72.90;;;;;;4945600;28;20031;-77
2023/05/03 12:35:23;;;;;;;11.65;4.75;;;18.20;71.90;;;;;;4954632;29;20042;-77
2023/05/03 12:37:49;;;;;;;9.82;4.22;;;18.30;70.70;;;;;;4941720;29;20034;-77
2023/05/03 12:40:16;;;;;;;6.82;3.92;;;18.40;71.10;;;;;;4945869;29;20374;-77
2023/05/03 12:42:42;;;;;;;7.35;4.05;;;18.40;70.40;;;;;;4943145;28;20154;-77
2023/05/03 12:45:10;;;;;;;11.65;4.43;;;18.50;70.00;;;;;;4955671;29;20114;-77
2023/05/03 12:47:38;;;;;;;6.57;3.80;;;18.60;70.00;;;;;;4945183;28;20035;-78
2023/05/03 12:50:04;;;;;;;10.95;4.78;;;18.70;69.50;;;;;;4955319;29;20559;-77
2023/05/03 12:52:30;;;;;;;7.45;4.07;;;18.70;69.30;;;;;;4957177;29;20019;-78